航空気象通報

ウインドサーファーのための航空気象通報による風予報です。

3/15-3/17の航空気象通報

2017年03月15日 21時41分22秒 | TAF
羽田空港
TAF RJTT 151110Z 1512/1618 04008KT 9999 FEW030
BECMG 1603/1606 20008KT
BECMG 1609/1612 35012KT
日本時間15日21時-16日12時:040度から8ノットの風
12-15時:風が変化
15-18時:200度から8ノットの風
18-21時:風が変化
21時-17日03時:350度から12ノットの風


静岡空港
TAF RJNS 151106Z 1512/1618 28006KT 9999 FEW030
BECMG 1600/1603 14008KT
BECMG 1606/1609 28012KT
日本時間15日21時-16日09時:280度から6ノットの風
09-12時:風が変化
12-15時:140度から8ノットの風
15-18時:風が変化
18時-17日03時:280度から12ノット風


福岡空港
TAF RJFF 151106Z 1512/1618 04005KT 9999 FEW030 SCT045
BECMG 1512/1514 14003KT
BECMG 1600/1603 33011KT
BECMG 1609/1612 13003KT
日本時間15日21時:040度から5ノットの風
21-23時:風が変化
23時-16日09時:140度から3ノットの風
09-12時:風が変化
12-18時:330度から11ノットの風
18-21時:風が変化
21時-17日03時:130度から3ノットの風


那覇空港
TAF ROAH 151107Z 1512/1618 05006KT 9999 FEW035 SCT045
BECMG 1600/1603 14006KT
日本時間15日21時-16日09時:050度から6ノットの風
09-12時:風が変化
12時-17日03時:140度から6ノットの風


石垣空港
TAF ROIG 151111Z 1512/1618 05006KT 9999 FEW035 SCT045
日本時間15日21時-17日21時:050度から6ノットの風


マウイのカフルイ空港
PHOG 151130Z 1512/1612 06006KT P6SM FEW025 SCT050
FM152100 04010KT P6SM FEW025 SCT050
FM160500 VRB05KT P6SM SCT040 BKN050 AMD LTD TO VIS AND WIND TIL 151600
ハワイ時間15日02-11時:060度から6ノットの風
11-19時:040度から10ノットの風

19時-16日02時:風向不定5ノットの風


サイパン空港
TAF PGSN 151138Z 1512/1612 33008KT P6SM VCSH SCT020 SCT040 SCT060
FM160000 36012KT P6SM VCSH SCT020 SCT040 SCT060
FM161000 04015KT P6SM VCSH SCT020 BKN040 BKN050
マリアナ時間15日22時-16日10時:330度から8ノットの風
10-20時:360度から12ノットの風

20-22時:040度から15ノットの風
ジャンル:
お天気
コメント   この記事についてブログを書く
この記事をはてなブックマークに追加
« 3/12-3/14の航空気象通報 | トップ | 3/16-3/18の航空気象通報 »
最近の画像もっと見る

コメントを投稿

ブログ作成者から承認されるまでコメントは反映されません。

TAF」カテゴリの最新記事

トラックバック

この記事のトラックバック  Ping-URL
ブログ作成者から承認されるまでトラックバックは反映されません。
  • 30日以上前の記事に対するトラックバックは受け取らないよう設定されております。
  • 送信元の記事内容が半角英数のみのトラックバックは受け取らないよう設定されております。
  • このブログへのリンクがない記事からのトラックバックは受け取らないよう設定されております。
  • ※ブログ管理者のみ、編集画面で設定の変更が可能です。